sensor_id;sensor_type;location;lat;lon;timestamp;pressure;altitude;pressure_sealevel;temperature;humidity
16690;BME280;8458;52.220;9.884;2022-10-16T00:00:12;100295.88;;;16.08;79.23
16690;BME280;8458;52.220;9.884;2022-10-16T00:02:39;100305.84;;;16.01;79.64
16690;BME280;8458;52.220;9.884;2022-10-16T00:05:05;100300.25;;;16.01;79.62
16690;BME280;8458;52.220;9.884;2022-10-16T00:07:32;100310.50;;;15.91;80.02
16690;BME280;8458;52.220;9.884;2022-10-16T00:09:58;100312.44;;;15.91;80.07
16690;BME280;8458;52.220;9.884;2022-10-16T00:12:26;100310.56;;;15.86;80.60
16690;BME280;8458;52.220;9.884;2022-10-16T00:14:53;100306.44;;;15.84;80.83
16690;BME280;8458;52.220;9.884;2022-10-16T00:17:20;100303.97;;;15.82;80.77
16690;BME280;8458;52.220;9.884;2022-10-16T00:19:46;100303.97;;;15.82;80.98
16690;BME280;8458;52.220;9.884;2022-10-16T00:22:13;100320.72;;;15.82;81.19
16690;BME280;8458;52.220;9.884;2022-10-16T00:24:39;100314.09;;;15.78;81.45
16690;BME280;8458;52.220;9.884;2022-10-16T00:27:05;100312.66;;;15.81;81.69
16690;BME280;8458;52.220;9.884;2022-10-16T00:29:33;100315.75;;;15.79;81.73
16690;BME280;8458;52.220;9.884;2022-10-16T00:32:00;100315.00;;;15.73;81.88
16690;BME280;8458;52.220;9.884;2022-10-16T00:34:26;100325.03;;;15.74;81.89
16690;BME280;8458;52.220;9.884;2022-10-16T00:36:52;100323.16;;;15.70;82.14
16690;BME280;8458;52.220;9.884;2022-10-16T00:39:19;100331.56;;;15.70;82.40
16690;BME280;8458;52.220;9.884;2022-10-16T00:41:45;100337.75;;;15.67;82.03
16690;BME280;8458;52.220;9.884;2022-10-16T00:44:43;100344.16;;;15.67;82.06
16690;BME280;8458;52.220;9.884;2022-10-16T00:47:11;100336.94;;;15.66;82.51
16690;BME280;8458;52.220;9.884;2022-10-16T00:49:38;100332.16;;;15.67;82.44
16690;BME280;8458;52.220;9.884;2022-10-16T00:52:05;100333.28;;;15.66;82.89
16690;BME280;8458;52.220;9.884;2022-10-16T00:54:32;100336.41;;;15.64;83.11
16690;BME280;8458;52.220;9.884;2022-10-16T00:57:01;100340.03;;;15.65;83.17
16690;BME280;8458;52.220;9.884;2022-10-16T00:59:29;100337.00;;;15.61;83.63
16690;BME280;8458;52.220;9.884;2022-10-16T01:01:58;100342.38;;;15.57;83.88
16690;BME280;8458;52.220;9.884;2022-10-16T01:04:26;100345.19;;;15.57;83.92
16690;BME280;8458;52.220;9.884;2022-10-16T01:07:03;100344.69;;;15.55;84.39
16690;BME280;8458;52.220;9.884;2022-10-16T01:09:39;100344.69;;;15.55;84.45
16690;BME280;8458;52.220;9.884;2022-10-16T01:12:15;100330.72;;;15.55;84.50
16690;BME280;8458;52.220;9.884;2022-10-16T01:14:47;100329.53;;;15.56;84.74
16690;BME280;8458;52.220;9.884;2022-10-16T01:17:19;100336.81;;;15.57;84.88
16690;BME280;8458;52.220;9.884;2022-10-16T01:20:00;100330.91;;;15.59;84.85
16690;BME280;8458;52.220;9.884;2022-10-16T01:22:34;100327.91;;;15.55;84.94
16690;BME280;8458;52.220;9.884;2022-10-16T01:25:08;100327.06;;;15.55;84.90
16690;BME280;8458;52.220;9.884;2022-10-16T01:27:40;100352.00;;;15.51;84.80
16690;BME280;8458;52.220;9.884;2022-10-16T01:30:13;100351.03;;;15.42;84.89
16690;BME280;8458;52.220;9.884;2022-10-16T01:32:44;100351.34;;;15.40;84.92
16690;BME280;8458;52.220;9.884;2022-10-16T01:35:18;100345.72;;;15.27;84.50
16690;BME280;8458;52.220;9.884;2022-10-16T01:37:50;100346.22;;;15.29;84.63
16690;BME280;8458;52.220;9.884;2022-10-16T01:40:20;100342.09;;;15.26;84.41
16690;BME280;8458;52.220;9.884;2022-10-16T01:42:50;100357.19;;;15.25;84.54
16690;BME280;8458;52.220;9.884;2022-10-16T01:45:19;100360.59;;;15.22;84.72
16690;BME280;8458;52.220;9.884;2022-10-16T01:47:48;100357.78;;;15.22;84.72
16690;BME280;8458;52.220;9.884;2022-10-16T01:50:17;100366.47;;;15.20;85.13
16690;BME280;8458;52.220;9.884;2022-10-16T01:52:46;100364.81;;;15.19;85.56
16690;BME280;8458;52.220;9.884;2022-10-16T01:55:22;100364.81;;;15.19;85.72
16690;BME280;8458;52.220;9.884;2022-10-16T01:57:53;100362.31;;;15.18;85.88
16690;BME280;8458;52.220;9.884;2022-10-16T02:00:22;100366.56;;;15.15;85.91
16690;BME280;8458;52.220;9.884;2022-10-16T02:02:52;100366.03;;;15.13;86.23
16690;BME280;8458;52.220;9.884;2022-10-16T02:05:24;100373.88;;;15.11;86.50
16690;BME280;8458;52.220;9.884;2022-10-16T02:07:52;100371.38;;;15.10;86.73
16690;BME280;8458;52.220;9.884;2022-10-16T02:10:18;100374.50;;;15.08;87.26
16690;BME280;8458;52.220;9.884;2022-10-16T02:12:49;100380.59;;;15.10;87.89
16690;BME280;8458;52.220;9.884;2022-10-16T02:15:17;100379.31;;;15.02;88.17
16690;BME280;8458;52.220;9.884;2022-10-16T02:17:44;100383.56;;;15.00;88.34
16690;BME280;8458;52.220;9.884;2022-10-16T02:20:11;100386.34;;;15.00;88.68
16690;BME280;8458;52.220;9.884;2022-10-16T02:22:39;100387.47;;;14.99;89.05
16690;BME280;8458;52.220;9.884;2022-10-16T02:25:10;100399.75;;;14.98;89.68
16690;BME280;8458;52.220;9.884;2022-10-16T02:27:41;100395.84;;;14.99;89.81
16690;BME280;8458;52.220;9.884;2022-10-16T02:30:13;100405.88;;;15.00;90.01
16690;BME280;8458;52.220;9.884;2022-10-16T02:32:44;100398.56;;;15.04;90.34
16690;BME280;8458;52.220;9.884;2022-10-16T02:35:13;100389.97;;;15.00;90.39
16690;BME280;8458;52.220;9.884;2022-10-16T02:37:41;100388.28;;;14.99;90.29
16690;BME280;8458;52.220;9.884;2022-10-16T02:40:09;100384.06;;;15.02;90.34
16690;BME280;8458;52.220;9.884;2022-10-16T02:42:37;100385.28;;;14.96;90.90
16690;BME280;8458;52.220;9.884;2022-10-16T02:45:05;100381.38;;;14.97;90.89
16690;BME280;8458;52.220;9.884;2022-10-16T02:47:32;100380.50;;;14.96;90.66
16690;BME280;8458;52.220;9.884;2022-10-16T02:50:00;100385.38;;;14.91;91.05
16690;BME280;8458;52.220;9.884;2022-10-16T02:52:27;100389.06;;;14.86;91.22
16690;BME280;8458;52.220;9.884;2022-10-16T02:54:53;100382.56;;;14.91;91.23
16690;BME280;8458;52.220;9.884;2022-10-16T02:57:20;100387.38;;;14.85;91.65
16690;BME280;8458;52.220;9.884;2022-10-16T02:59:46;100382.31;;;14.87;91.48
16690;BME280;8458;52.220;9.884;2022-10-16T03:02:13;100383.69;;;14.90;91.50
16690;BME280;8458;52.220;9.884;2022-10-16T03:04:39;100379.84;;;14.85;91.57
16690;BME280;8458;52.220;9.884;2022-10-16T03:07:07;100379.63;;;14.82;91.62
16690;BME280;8458;52.220;9.884;2022-10-16T03:09:33;100372.06;;;14.82;91.48
16690;BME280;8458;52.220;9.884;2022-10-16T03:12:00;100380.38;;;14.87;91.36
16690;BME280;8458;52.220;9.884;2022-10-16T03:14:26;100380.91;;;14.90;91.28
16690;BME280;8458;52.220;9.884;2022-10-16T03:16:53;100370.84;;;14.88;91.45
16690;BME280;8458;52.220;9.884;2022-10-16T03:19:19;100363.25;;;14.94;91.07
16690;BME280;8458;52.220;9.884;2022-10-16T03:21:46;100378.09;;;14.90;91.20
16690;BME280;8458;52.220;9.884;2022-10-16T03:24:13;100372.06;;;14.82;91.61
16690;BME280;8458;52.220;9.884;2022-10-16T03:26:40;100365.28;;;14.88;91.48
16690;BME280;8458;52.220;9.884;2022-10-16T03:29:07;100377.03;;;14.85;91.35
16690;BME280;8458;52.220;9.884;2022-10-16T03:31:33;100380.13;;;14.84;91.79
16690;BME280;8458;52.220;9.884;2022-10-16T03:34:00;100383.19;;;14.87;92.04
16690;BME280;8458;52.220;9.884;2022-10-16T03:36:26;100374.41;;;14.94;91.64
16690;BME280;8458;52.220;9.884;2022-10-16T03:38:53;100374.41;;;14.94;91.74
16690;BME280;8458;52.220;9.884;2022-10-16T03:41:21;100378.56;;;14.97;91.71
16690;BME280;8458;52.220;9.884;2022-10-16T03:43:47;100390.34;;;14.94;91.89
16690;BME280;8458;52.220;9.884;2022-10-16T03:46:13;100384.16;;;14.97;91.62
16690;BME280;8458;52.220;9.884;2022-10-16T03:48:40;100390.88;;;14.96;91.72
16690;BME280;8458;52.220;9.884;2022-10-16T03:51:06;100383.56;;;15.00;91.64
16690;BME280;8458;52.220;9.884;2022-10-16T03:53:33;100381.66;;;14.95;91.73
16690;BME280;8458;52.220;9.884;2022-10-16T03:55:59;100378.56;;;14.97;92.11
16690;BME280;8458;52.220;9.884;2022-10-16T03:58:27;100376.31;;;14.99;92.26
16690;BME280;8458;52.220;9.884;2022-10-16T04:00:54;100382.94;;;15.03;92.02
16690;BME280;8458;52.220;9.884;2022-10-16T04:03:20;100386.03;;;15.01;92.05
16690;BME280;8458;52.220;9.884;2022-10-16T04:05:48;100393.34;;;14.97;92.00
16690;BME280;8458;52.220;9.884;2022-10-16T04:08:15;100381.38;;;14.97;92.05
16690;BME280;8458;52.220;9.884;2022-10-16T04:10:42;100378.28;;;14.98;91.74
16690;BME280;8458;52.220;9.884;2022-10-16T04:13:09;100376.09;;;14.95;91.62
16690;BME280;8458;52.220;9.884;2022-10-16T04:15:37;100392.84;;;14.95;91.46
16690;BME280;8458;52.220;9.884;2022-10-16T04:18:04;100397.34;;;14.91;92.04
16690;BME280;8458;52.220;9.884;2022-10-16T04:20:31;100407.69;;;14.91;92.16
16690;BME280;8458;52.220;9.884;2022-10-16T04:22:57;100411.00;;;14.93;92.21
16690;BME280;8458;52.220;9.884;2022-10-16T04:25:24;100413.03;;;14.87;92.33
16690;BME280;8458;52.220;9.884;2022-10-16T04:27:52;100415.59;;;14.83;92.41
16690;BME280;8458;52.220;9.884;2022-10-16T04:30:19;100418.38;;;14.83;92.59
16690;BME280;8458;52.220;9.884;2022-10-16T04:32:48;100420.06;;;14.84;92.64
16690;BME280;8458;52.220;9.884;2022-10-16T04:35:15;100416.13;;;14.85;92.62
16690;BME280;8458;52.220;9.884;2022-10-16T04:37:42;100412.28;;;14.81;92.58
16690;BME280;8458;52.220;9.884;2022-10-16T04:40:09;100419.47;;;14.87;92.31
16690;BME280;8458;52.220;9.884;2022-10-16T04:42:35;100422.47;;;14.91;92.10
16690;BME280;8458;52.220;9.884;2022-10-16T04:45:02;100406.63;;;14.86;91.97
16690;BME280;8458;52.220;9.884;2022-10-16T04:47:28;100409.34;;;14.92;91.48
16690;BME280;8458;52.220;9.884;2022-10-16T04:49:56;100413.88;;;14.87;91.28
16690;BME280;8458;52.220;9.884;2022-10-16T04:52:23;100411.38;;;14.86;91.46
16690;BME280;8458;52.220;9.884;2022-10-16T04:54:51;100401.63;;;14.83;91.58
16690;BME280;8458;52.220;9.884;2022-10-16T04:57:19;100420.34;;;14.83;91.71
16690;BME280;8458;52.220;9.884;2022-10-16T04:59:45;100419.50;;;14.82;91.72
16690;BME280;8458;52.220;9.884;2022-10-16T05:02:12;100426.97;;;14.87;91.78
16690;BME280;8458;52.220;9.884;2022-10-16T05:04:38;100425.63;;;14.84;91.89
16690;BME280;8458;52.220;9.884;2022-10-16T05:07:06;100418.91;;;14.85;91.61
16690;BME280;8458;52.220;9.884;2022-10-16T05:09:32;100439.34;;;14.81;91.90
16690;BME280;8458;52.220;9.884;2022-10-16T05:11:59;100441.00;;;14.82;92.11
16690;BME280;8458;52.220;9.884;2022-10-16T05:14:25;100434.91;;;14.80;92.31
16690;BME280;8458;52.220;9.884;2022-10-16T05:16:52;100429.03;;;14.81;92.19
16690;BME280;8458;52.220;9.884;2022-10-16T05:19:19;100434.91;;;14.80;91.84
16690;BME280;8458;52.220;9.884;2022-10-16T05:21:45;100439.34;;;14.81;91.29
16690;BME280;8458;52.220;9.884;2022-10-16T05:24:13;100435.22;;;14.78;90.78
16690;BME280;8458;52.220;9.884;2022-10-16T05:26:40;100448.69;;;14.71;90.64
16690;BME280;8458;52.220;9.884;2022-10-16T05:29:06;100451.25;;;14.67;90.80
16690;BME280;8458;52.220;9.884;2022-10-16T05:31:33;100451.56;;;14.66;91.19
16690;BME280;8458;52.220;9.884;2022-10-16T05:34:00;100461.56;;;14.67;91.37
16690;BME280;8458;52.220;9.884;2022-10-16T05:36:26;100462.72;;;14.66;91.13
16690;BME280;8458;52.220;9.884;2022-10-16T05:38:53;100467.75;;;14.64;90.93
16690;BME280;8458;52.220;9.884;2022-10-16T05:41:21;100460.81;;;14.61;90.77
16690;BME280;8458;52.220;9.884;2022-10-16T05:43:53;100475.63;;;14.57;89.97
16690;BME280;8458;52.220;9.884;2022-10-16T05:46:20;100463.97;;;14.49;90.97
16690;BME280;8458;52.220;9.884;2022-10-16T05:48:46;100466.84;;;14.44;91.96
16690;BME280;8458;52.220;9.884;2022-10-16T05:51:14;100459.88;;;14.42;91.03
16690;BME280;8458;52.220;9.884;2022-10-16T05:53:41;100476.44;;;14.33;92.49
16690;BME280;8458;52.220;9.884;2022-10-16T05:56:09;100467.00;;;14.29;93.00
16690;BME280;8458;52.220;9.884;2022-10-16T05:58:38;100459.72;;;14.33;93.26
16690;BME280;8458;52.220;9.884;2022-10-16T06:01:06;100482.03;;;14.33;93.51
16690;BME280;8458;52.220;9.884;2022-10-16T06:03:33;100493.19;;;14.33;93.84
16690;BME280;8458;52.220;9.884;2022-10-16T06:06:07;100490.91;;;14.35;93.83
16690;BME280;8458;52.220;9.884;2022-10-16T06:08:33;100489.25;;;14.34;93.82
16690;BME280;8458;52.220;9.884;2022-10-16T06:11:00;100497.59;;;14.39;93.94
16690;BME280;8458;52.220;9.884;2022-10-16T06:13:27;100491.16;;;14.39;94.27
16690;BME280;8458;52.220;9.884;2022-10-16T06:15:57;100486.44;;;14.39;94.58
16690;BME280;8458;52.220;9.884;2022-10-16T06:18:23;100485.84;;;14.42;95.10
16690;BME280;8458;52.220;9.884;2022-10-16T06:20:50;100485.78;;;14.47;95.13
16690;BME280;8458;52.220;9.884;2022-10-16T06:23:16;100491.34;;;14.47;95.21
16690;BME280;8458;52.220;9.884;2022-10-16T06:25:43;100503.63;;;14.46;95.36
16690;BME280;8458;52.220;9.884;2022-10-16T06:28:09;100521.69;;;14.54;95.17
16690;BME280;8458;52.220;9.884;2022-10-16T06:30:35;100518.59;;;14.56;95.57
16690;BME280;8458;52.220;9.884;2022-10-16T06:33:03;100524.16;;;14.56;96.19
16690;BME280;8458;52.220;9.884;2022-10-16T06:35:30;100521.91;;;14.58;96.27
16690;BME280;8458;52.220;9.884;2022-10-16T06:37:57;100519.63;;;14.65;96.09
16690;BME280;8458;52.220;9.884;2022-10-16T06:40:23;100516.84;;;14.65;96.51
16690;BME280;8458;52.220;9.884;2022-10-16T06:42:50;100523.03;;;14.62;96.77
16690;BME280;8458;52.220;9.884;2022-10-16T06:45:17;100525.44;;;14.68;96.74
16690;BME280;8458;52.220;9.884;2022-10-16T06:47:43;100530.72;;;14.70;96.86
16690;BME280;8458;52.220;9.884;2022-10-16T06:50:11;100534.06;;;14.72;97.08
16690;BME280;8458;52.220;9.884;2022-10-16T06:52:37;100532.31;;;14.81;96.98
16690;BME280;8458;52.220;9.884;2022-10-16T06:55:04;100531.16;;;14.82;97.37
16690;BME280;8458;52.220;9.884;2022-10-16T06:57:31;100546.19;;;14.86;97.47
16690;BME280;8458;52.220;9.884;2022-10-16T06:59:57;100546.72;;;14.88;97.83
16690;BME280;8458;52.220;9.884;2022-10-16T07:02:24;100552.84;;;14.91;98.50
16690;BME280;8458;52.220;9.884;2022-10-16T07:04:50;100553.31;;;14.98;98.43
16690;BME280;8458;52.220;9.884;2022-10-16T07:07:18;100542.00;;;15.08;98.29
16690;BME280;8458;52.220;9.884;2022-10-16T07:09:44;100543.09;;;15.12;98.33
16690;BME280;8458;52.220;9.884;2022-10-16T07:12:11;100534.50;;;15.28;97.25
16690;BME280;8458;52.220;9.884;2022-10-16T07:14:37;100547.31;;;15.29;97.43
16690;BME280;8458;52.220;9.884;2022-10-16T07:17:04;100559.34;;;15.29;97.92
16690;BME280;8458;52.220;9.884;2022-10-16T07:19:30;100557.31;;;15.35;98.18
16690;BME280;8458;52.220;9.884;2022-10-16T07:21:57;100556.09;;;15.41;96.97
16690;BME280;8458;52.220;9.884;2022-10-16T07:24:25;100556.34;;;15.45;96.45
16690;BME280;8458;52.220;9.884;2022-10-16T07:26:51;100560.44;;;15.52;96.37
16690;BME280;8458;52.220;9.884;2022-10-16T07:29:20;100574.03;;;15.59;95.42
16690;BME280;8458;52.220;9.884;2022-10-16T07:31:47;100573.63;;;15.66;94.67
16690;BME280;8458;52.220;9.884;2022-10-16T07:34:16;100584.00;;;15.65;94.53
16690;BME280;8458;52.220;9.884;2022-10-16T07:36:43;100584.22;;;15.69;94.10
16690;BME280;8458;52.220;9.884;2022-10-16T07:39:09;100601.22;;;15.72;93.97
16690;BME280;8458;52.220;9.884;2022-10-16T07:41:37;100592.53;;;15.74;93.45
16690;BME280;8458;52.220;9.884;2022-10-16T07:44:04;100592.53;;;15.74;92.95
16690;BME280;8458;52.220;9.884;2022-10-16T07:46:31;100593.06;;;15.76;93.06
16690;BME280;8458;52.220;9.884;2022-10-16T07:48:59;100607.50;;;15.83;93.24
16690;BME280;8458;52.220;9.884;2022-10-16T07:51:26;100612.19;;;15.88;93.18
16690;BME280;8458;52.220;9.884;2022-10-16T07:53:53;100605.19;;;15.90;92.92
16690;BME280;8458;52.220;9.884;2022-10-16T07:56:21;100604.47;;;15.99;93.36
16690;BME280;8458;52.220;9.884;2022-10-16T07:58:49;100615.59;;;16.04;93.65
16690;BME280;8458;52.220;9.884;2022-10-16T08:01:17;100617.56;;;16.03;92.05
16690;BME280;8458;52.220;9.884;2022-10-16T08:03:44;100623.59;;;16.10;90.81
16690;BME280;8458;52.220;9.884;2022-10-16T08:06:11;100620.00;;;16.10;90.54
16690;BME280;8458;52.220;9.884;2022-10-16T08:08:38;100623.50;;;16.16;91.25
16690;BME280;8458;52.220;9.884;2022-10-16T08:11:04;100628.81;;;16.17;91.52
16690;BME280;8458;52.220;9.884;2022-10-16T08:13:31;100628.00;;;16.17;91.95
16690;BME280;8458;52.220;9.884;2022-10-16T08:15:59;100638.88;;;16.18;91.78
16690;BME280;8458;52.220;9.884;2022-10-16T08:18:26;100647.63;;;16.30;92.02
16690;BME280;8458;52.220;9.884;2022-10-16T08:20:56;100648.75;;;16.29;91.65
16690;BME280;8458;52.220;9.884;2022-10-16T08:23:23;100651.50;;;16.35;91.79
16690;BME280;8458;52.220;9.884;2022-10-16T08:25:51;100654.19;;;16.40;91.18
16690;BME280;8458;52.220;9.884;2022-10-16T08:28:18;100659.19;;;16.43;90.91
16690;BME280;8458;52.220;9.884;2022-10-16T08:30:45;100657.19;;;16.43;90.16
16690;BME280;8458;52.220;9.884;2022-10-16T08:33:12;100657.50;;;16.42;88.56
16690;BME280;8458;52.220;9.884;2022-10-16T08:35:39;100662.59;;;16.40;88.49
16690;BME280;8458;52.220;9.884;2022-10-16T08:38:06;100655.56;;;16.42;89.06
16690;BME280;8458;52.220;9.884;2022-10-16T08:40:34;100663.78;;;16.53;89.50
16690;BME280;8458;52.220;9.884;2022-10-16T08:43:16;100663.41;;;16.59;88.98
16690;BME280;8458;52.220;9.884;2022-10-16T08:45:57;100660.72;;;16.68;88.14
16690;BME280;8458;52.220;9.884;2022-10-16T08:48:35;100660.84;;;16.77;88.29
16690;BME280;8458;52.220;9.884;2022-10-16T08:51:09;100652.31;;;16.87;87.10
16690;BME280;8458;52.220;9.884;2022-10-16T08:53:44;100664.22;;;16.93;86.73
16690;BME280;8458;52.220;9.884;2022-10-16T08:56:11;100668.91;;;16.97;86.19
16690;BME280;8458;52.220;9.884;2022-10-16T08:58:37;100668.91;;;16.97;84.41
16690;BME280;8458;52.220;9.884;2022-10-16T09:01:11;100665.59;;;16.95;83.43
16690;BME280;8458;52.220;9.884;2022-10-16T09:03:55;100669.44;;;16.80;82.66
16690;BME280;8458;52.220;9.884;2022-10-16T09:06:34;100670.38;;;16.76;82.30
16690;BME280;8458;52.220;9.884;2022-10-16T09:09:13;100686.66;;;16.74;81.76
16690;BME280;8458;52.220;9.884;2022-10-16T09:11:47;100676.53;;;16.78;81.83
16690;BME280;8458;52.220;9.884;2022-10-16T09:14:28;100689.66;;;16.77;82.68
16690;BME280;8458;52.220;9.884;2022-10-16T09:17:10;100683.69;;;16.84;82.67
16690;BME280;8458;52.220;9.884;2022-10-16T09:19:45;100690.41;;;16.83;82.24
16690;BME280;8458;52.220;9.884;2022-10-16T09:22:15;100686.94;;;16.91;81.19
16690;BME280;8458;52.220;9.884;2022-10-16T09:24:42;100692.66;;;17.00;81.10
16690;BME280;8458;52.220;9.884;2022-10-16T09:27:10;100697.78;;;17.12;80.67
16690;BME280;8458;52.220;9.884;2022-10-16T09:29:37;100694.34;;;17.29;80.78
16690;BME280;8458;52.220;9.884;2022-10-16T09:32:10;100701.63;;;17.44;80.87
16690;BME280;8458;52.220;9.884;2022-10-16T09:34:43;100704.75;;;17.56;79.18
16690;BME280;8458;52.220;9.884;2022-10-16T09:37:14;100704.88;;;17.65;77.77
16690;BME280;8458;52.220;9.884;2022-10-16T09:39:48;100716.47;;;17.72;77.81
16690;BME280;8458;52.220;9.884;2022-10-16T09:42:16;100709.41;;;17.74;76.71
16690;BME280;8458;52.220;9.884;2022-10-16T09:44:47;100716.28;;;17.82;77.22
16690;BME280;8458;52.220;9.884;2022-10-16T09:47:16;100721.38;;;17.94;76.54
16690;BME280;8458;52.220;9.884;2022-10-16T09:49:53;100725.41;;;17.88;74.77
16690;BME280;8458;52.220;9.884;2022-10-16T09:52:22;100722.94;;;18.00;74.18
16690;BME280;8458;52.220;9.884;2022-10-16T09:54:50;100728.13;;;18.07;74.23
16690;BME280;8458;52.220;9.884;2022-10-16T09:57:17;100722.91;;;18.14;74.16
16690;BME280;8458;52.220;9.884;2022-10-16T09:59:47;100734.19;;;18.23;74.59
16690;BME280;8458;52.220;9.884;2022-10-16T10:02:15;100723.25;;;18.35;74.10
16690;BME280;8458;52.220;9.884;2022-10-16T10:04:48;100729.47;;;18.46;72.52
16690;BME280;8458;52.220;9.884;2022-10-16T10:07:23;100739.09;;;18.54;72.14
16690;BME280;8458;52.220;9.884;2022-10-16T10:09:51;100746.38;;;18.55;72.11
16690;BME280;8458;52.220;9.884;2022-10-16T10:12:19;100731.44;;;18.68;71.27
16690;BME280;8458;52.220;9.884;2022-10-16T10:14:47;100737.47;;;18.75;70.88
16690;BME280;8458;52.220;9.884;2022-10-16T10:17:17;100739.22;;;18.71;67.39
16690;BME280;8458;52.220;9.884;2022-10-16T10:19:47;100745.75;;;18.58;68.56
16690;BME280;8458;52.220;9.884;2022-10-16T10:22:22;100745.13;;;18.61;69.93
16690;BME280;8458;52.220;9.884;2022-10-16T10:25:22;100747.66;;;18.71;68.49
16690;BME280;8458;52.220;9.884;2022-10-16T10:28:18;100737.06;;;18.68;66.60
16690;BME280;8458;52.220;9.884;2022-10-16T10:30:55;100741.41;;;18.52;68.27
16690;BME280;8458;52.220;9.884;2022-10-16T10:33:28;100746.97;;;18.29;67.90
16690;BME280;8458;52.220;9.884;2022-10-16T10:36:08;100746.25;;;18.37;68.21
16690;BME280;8458;52.220;9.884;2022-10-16T10:38:47;100747.78;;;18.43;68.44
16690;BME280;8458;52.220;9.884;2022-10-16T10:44:29;100751.50;;;18.75;66.38
16690;BME280;8458;52.220;9.884;2022-10-16T10:47:05;100769.34;;;18.93;66.36
16690;BME280;8458;52.220;9.884;2022-10-16T10:49:48;100759.25;;;18.92;65.39
16690;BME280;8458;52.220;9.884;2022-10-16T10:52:41;100767.75;;;19.01;65.35
16690;BME280;8458;52.220;9.884;2022-10-16T10:55:16;100767.63;;;19.06;63.83
16690;BME280;8458;52.220;9.884;2022-10-16T10:58:01;100768.81;;;19.14;64.73
16690;BME280;8458;52.220;9.884;2022-10-16T11:00:42;100766.56;;;19.25;63.62
16690;BME280;8458;52.220;9.884;2022-10-16T11:03:21;100773.22;;;19.29;63.36
16690;BME280;8458;52.220;9.884;2022-10-16T11:05:56;100772.28;;;19.42;62.30
16690;BME280;8458;52.220;9.884;2022-10-16T11:08:29;100779.84;;;19.33;61.55
16690;BME280;8458;52.220;9.884;2022-10-16T11:11:02;100778.44;;;19.44;63.06
16690;BME280;8458;52.220;9.884;2022-10-16T11:13:33;100759.94;;;19.52;62.11
16690;BME280;8458;52.220;9.884;2022-10-16T11:16:06;100758.47;;;19.55;62.39
16690;BME280;8458;52.220;9.884;2022-10-16T11:18:46;100769.25;;;19.61;62.30
16690;BME280;8458;52.220;9.884;2022-10-16T11:21:18;100765.00;;;19.73;62.13
16690;BME280;8458;52.220;9.884;2022-10-16T11:23:51;100765.00;;;19.73;59.14
16690;BME280;8458;52.220;9.884;2022-10-16T11:26:25;100780.69;;;19.65;58.69
16690;BME280;8458;52.220;9.884;2022-10-16T11:28:54;100782.53;;;19.69;58.26
16690;BME280;8458;52.220;9.884;2022-10-16T11:31:28;100786.31;;;19.65;59.26
16690;BME280;8458;52.220;9.884;2022-10-16T11:34:02;100785.59;;;19.50;59.18
16690;BME280;8458;52.220;9.884;2022-10-16T11:36:33;100791.56;;;19.58;59.48
16690;BME280;8458;52.220;9.884;2022-10-16T11:39:09;100791.88;;;19.56;60.13
16690;BME280;8458;52.220;9.884;2022-10-16T11:41:42;100789.91;;;19.57;59.26
16690;BME280;8458;52.220;9.884;2022-10-16T11:44:20;100795.81;;;19.46;58.74
16690;BME280;8458;52.220;9.884;2022-10-16T11:47:08;100802.72;;;19.40;59.20
16690;BME280;8458;52.220;9.884;2022-10-16T11:49:37;100795.88;;;19.32;59.48
16690;BME280;8458;52.220;9.884;2022-10-16T11:52:10;100807.47;;;19.31;58.83
16690;BME280;8458;52.220;9.884;2022-10-16T11:54:43;100809.63;;;19.34;57.71
16690;BME280;8458;52.220;9.884;2022-10-16T11:57:17;100805.66;;;19.35;57.55
16690;BME280;8458;52.220;9.884;2022-10-16T11:59:48;100813.22;;;19.26;58.28
16690;BME280;8458;52.220;9.884;2022-10-16T12:02:30;100815.38;;;19.29;58.46
16690;BME280;8458;52.220;9.884;2022-10-16T12:05:10;100808.34;;;19.40;58.86
16690;BME280;8458;52.220;9.884;2022-10-16T12:07:41;100813.31;;;19.43;58.38
16690;BME280;8458;52.220;9.884;2022-10-16T12:10:21;100812.69;;;19.46;57.72
16690;BME280;8458;52.220;9.884;2022-10-16T12:12:50;100812.50;;;19.43;57.90
16690;BME280;8458;52.220;9.884;2022-10-16T12:15:22;100814.84;;;19.27;58.41
16690;BME280;8458;52.220;9.884;2022-10-16T12:17:50;100818.84;;;19.26;58.79
16690;BME280;8458;52.220;9.884;2022-10-16T12:20:23;100813.56;;;19.33;58.40
16690;BME280;8458;52.220;9.884;2022-10-16T12:22:53;100813.56;;;19.33;58.06
16690;BME280;8458;52.220;9.884;2022-10-16T12:25:23;100818.56;;;19.36;59.07
16690;BME280;8458;52.220;9.884;2022-10-16T12:27:57;100818.75;;;19.40;58.23
16690;BME280;8458;52.220;9.884;2022-10-16T12:30:26;100814.94;;;19.35;59.14
16690;BME280;8458;52.220;9.884;2022-10-16T12:32:53;100822.53;;;19.35;57.97
16690;BME280;8458;52.220;9.884;2022-10-16T12:35:23;100822.72;;;19.39;57.83
16690;BME280;8458;52.220;9.884;2022-10-16T12:37:50;100817.56;;;19.32;58.28
16690;BME280;8458;52.220;9.884;2022-10-16T12:40:26;100816.28;;;19.38;58.43
16690;BME280;8458;52.220;9.884;2022-10-16T12:42:53;100821.50;;;19.53;57.61
16690;BME280;8458;52.220;9.884;2022-10-16T12:45:27;100829.00;;;19.67;56.43
16690;BME280;8458;52.220;9.884;2022-10-16T12:47:55;100836.56;;;19.58;56.72
16690;BME280;8458;52.220;9.884;2022-10-16T12:50:32;100833.25;;;19.56;57.31
16690;BME280;8458;52.220;9.884;2022-10-16T12:52:59;100826.31;;;19.62;56.73
16690;BME280;8458;52.220;9.884;2022-10-16T12:55:26;100828.88;;;19.72;56.68
16690;BME280;8458;52.220;9.884;2022-10-16T12:58:07;100834.72;;;19.84;56.67
16690;BME280;8458;52.220;9.884;2022-10-16T13:00:43;100832.13;;;19.97;55.29
16690;BME280;8458;52.220;9.884;2022-10-16T13:03:39;100849.34;;;19.95;54.63
16690;BME280;8458;52.220;9.884;2022-10-16T13:06:18;100848.66;;;19.90;55.10
16690;BME280;8458;52.220;9.884;2022-10-16T13:08:59;100854.00;;;20.00;55.25
16690;BME280;8458;52.220;9.884;2022-10-16T13:11:38;100841.63;;;20.10;54.83
16690;BME280;8458;52.220;9.884;2022-10-16T13:14:23;100854.53;;;20.11;53.85
16690;BME280;8458;52.220;9.884;2022-10-16T13:17:02;100852.69;;;20.06;53.91